Time;durP1;ratioP1;P1;durP2;ratioP2;P2;SDS_P1;SDS_P2;PMS_P1;PMS_P2;Temp;Humidity;BMP_temperature;BMP_pressure;BME280_temperature;BME280_humidity;BME280_pressure;Samples;Min_cycle;Max_cycle;Signal;HPM_P1;HPM_P2
2023/02/08 00:00:45;;;;;;;20.77;12.43;;;2.50;99.90;;;;;;5051488;28;20548;-81
2023/02/08 00:03:11;;;;;;;23.92;13.05;;;2.60;99.90;;;;;;5051904;28;20177;-81
2023/02/08 00:05:37;;;;;;;27.45;12.85;;;2.50;99.90;;;;;;5053111;28;20168;-81
2023/02/08 00:08:03;;;;;;;22.13;11.90;;;2.50;99.90;;;;;;5052581;28;20171;-81
2023/02/08 00:10:29;;;;;;;26.05;12.02;;;2.60;99.90;;;;;;5051795;28;20225;-82
2023/02/08 00:12:54;;;;;;;28.20;12.02;;;2.40;99.90;;;;;;5051562;28;20190;-82
2023/02/08 00:15:20;;;;;;;21.92;13.48;;;2.40;99.90;;;;;;5053054;28;20167;-80
2023/02/08 00:17:46;;;;;;;25.70;14.00;;;2.40;99.90;;;;;;5053058;28;20242;-81
2023/02/08 00:20:12;;;;;;;24.27;12.68;;;2.50;99.90;;;;;;5052690;28;20262;-82
2023/02/08 00:22:37;;;;;;;23.90;12.52;;;2.40;99.90;;;;;;5051509;28;20186;-84
2023/02/08 00:25:05;;;;;;;20.60;12.02;;;2.30;99.90;;;;;;5052610;28;20163;-82
2023/02/08 00:27:31;;;;;;;27.02;12.88;;;2.30;99.90;;;;;;5052443;28;20224;-82
2023/02/08 00:29:56;;;;;;;19.13;11.52;;;2.20;99.90;;;;;;5051738;28;20175;-83
2023/02/08 00:32:22;;;;;;;33.00;13.45;;;2.20;99.90;;;;;;5052612;28;20669;-80
2023/02/08 00:34:48;;;;;;;26.27;12.88;;;2.30;99.90;;;;;;5052769;28;20221;-85
2023/02/08 00:37:14;;;;;;;23.50;11.75;;;2.10;99.90;;;;;;5051494;28;20612;-81
2023/02/08 00:39:39;;;;;;;23.20;12.75;;;2.20;99.90;;;;;;5052660;28;20171;-80
2023/02/08 00:42:05;;;;;;;27.60;12.48;;;2.30;99.90;;;;;;5051461;28;20194;-83
2023/02/08 00:44:30;;;;;;;25.27;13.05;;;2.40;99.90;;;;;;5055822;28;20597;-84
2023/02/08 00:46:57;;;;;;;29.98;11.75;;;2.40;99.90;;;;;;5066023;28;20174;-82
2023/02/08 00:49:23;;;;;;;24.55;12.35;;;2.30;99.90;;;;;;5060887;28;20531;-81
2023/02/08 00:51:49;;;;;;;24.58;11.68;;;2.10;99.90;;;;;;5059193;28;20183;-81
2023/02/08 00:54:16;;;;;;;20.90;11.57;;;2.00;99.90;;;;;;5063345;28;20211;-81
2023/02/08 00:56:43;;;;;;;19.52;13.35;;;2.00;99.90;;;;;;5059316;28;20175;-79
2023/02/08 00:59:11;;;;;;;26.73;11.93;;;2.00;99.90;;;;;;5062320;28;20181;-80
2023/02/08 01:01:40;;;;;;;15.75;11.25;;;2.00;99.90;;;;;;5061598;28;20704;-82
2023/02/08 01:04:05;;;;;;;20.63;11.57;;;2.20;99.90;;;;;;5061677;28;20151;-81
2023/02/08 01:06:34;;;;;;;24.33;12.10;;;2.00;99.90;;;;;;5061964;28;20220;-81
2023/02/08 01:09:01;;;;;;;17.15;11.70;;;2.10;99.90;;;;;;5065105;28;20198;-80
2023/02/08 01:11:27;;;;;;;21.67;12.07;;;2.00;99.90;;;;;;5065668;28;20187;-81
2023/02/08 01:13:56;;;;;;;23.40;14.02;;;1.90;99.90;;;;;;5063263;28;20210;-80
2023/02/08 01:16:25;;;;;;;26.67;12.48;;;2.10;99.90;;;;;;5070751;28;20178;-80
2023/02/08 01:18:56;;;;;;;22.95;12.48;;;2.20;99.90;;;;;;5071856;28;20175;-81
2023/02/08 01:21:28;;;;;;;17.42;11.77;;;2.10;99.90;;;;;;5060956;28;20187;-80
2023/02/08 01:23:54;;;;;;;21.35;11.77;;;2.00;99.90;;;;;;5060430;28;20170;-82
2023/02/08 01:26:21;;;;;;;19.95;11.98;;;2.10;99.90;;;;;;5062299;28;20171;-81
2023/02/08 01:28:47;;;;;;;16.95;11.18;;;2.20;99.90;;;;;;5061375;28;20171;-83
2023/02/08 01:31:19;;;;;;;19.02;11.35;;;2.20;99.90;;;;;;5062124;28;20198;-82
2023/02/08 01:33:46;;;;;;;18.33;12.07;;;2.10;99.90;;;;;;5061129;28;20211;-80
2023/02/08 01:36:12;;;;;;;29.48;12.68;;;1.90;99.90;;;;;;5059654;28;20171;-81
2023/02/08 01:38:38;;;;;;;15.73;11.07;;;1.70;99.90;;;;;;5064256;28;20171;-82
2023/02/08 01:41:07;;;;;;;20.05;12.98;;;1.60;99.90;;;;;;5070367;28;20251;-82
2023/02/08 01:43:55;;;;;;;18.20;11.48;;;1.50;99.90;;;;;;5078537;28;20167;-80
2023/02/08 01:46:21;;;;;;;17.52;11.55;;;1.60;99.90;;;;;;5062210;28;20175;-83
2023/02/08 01:48:46;;;;;;;16.00;11.52;;;1.70;99.90;;;;;;5057156;28;20635;-84
2023/02/08 01:51:20;;;;;;;20.17;11.43;;;1.90;99.90;;;;;;5056691;28;20237;-82
2023/02/08 01:53:48;;;;;;;15.95;11.38;;;1.90;99.90;;;;;;5056358;28;20207;-83
2023/02/08 01:56:19;;;;;;;20.80;12.57;;;1.90;99.90;;;;;;5057219;28;20199;-84
2023/02/08 01:58:50;;;;;;;20.30;12.27;;;1.90;99.90;;;;;;5057090;28;20171;-85
2023/02/08 02:01:16;;;;;;;23.83;12.65;;;1.90;99.90;;;;;;5056376;28;20190;-83
2023/02/08 02:03:42;;;;;;;26.02;13.93;;;1.90;99.90;;;;;;5060231;28;20227;-85
2023/02/08 02:06:16;;;;;;;20.13;12.55;;;2.00;99.90;;;;;;5061897;28;20670;-81
2023/02/08 02:11:09;;;;;;;24.50;12.23;;;1.50;99.90;;;;;;5063695;28;20179;-81
2023/02/08 02:13:36;;;;;;;17.55;11.95;;;1.40;99.90;;;;;;5061556;28;20713;-85
2023/02/08 02:16:02;;;;;;;16.00;11.88;;;1.40;99.90;;;;;;5058114;28;20176;-85
2023/02/08 02:18:30;;;;;;;21.25;11.60;;;1.40;99.90;;;;;;5058107;28;20178;-82
2023/02/08 02:21:15;;;;;;;18.08;12.73;;;1.40;99.90;;;;;;5056677;28;20187;-84
2023/02/08 02:23:59;;;;;;;18.17;12.18;;;1.20;99.90;;;;;;5058266;28;20223;-84
2023/02/08 02:26:59;;;;;;;20.92;12.32;;;1.10;99.90;;;;;;5058248;28;20237;-83
2023/02/08 02:29:40;;;;;;;23.33;12.23;;;1.10;99.90;;;;;;5055341;28;20197;-84
2023/02/08 02:32:30;;;;;;;18.17;11.00;;;1.20;99.90;;;;;;5054108;28;20277;-84
2023/02/08 02:35:19;;;;;;;21.10;11.32;;;1.20;99.90;;;;;;5055887;28;20213;-83
2023/02/08 02:37:59;;;;;;;18.67;11.35;;;1.20;99.90;;;;;;5044658;28;20187;-84
2023/02/08 02:40:39;;;;;;;17.35;11.52;;;1.10;99.90;;;;;;5053405;28;20183;-81
2023/02/08 02:46:08;;;;;;;20.25;12.45;;;1.50;99.90;;;;;;5054800;28;20274;-81
2023/02/08 02:48:53;;;;;;;18.48;11.77;;;1.20;99.90;;;;;;5053403;28;20217;-80
2023/02/08 02:51:30;;;;;;;21.70;11.75;;;1.20;99.90;;;;;;5053075;28;20187;-84
2023/02/08 02:54:26;;;;;;;24.55;11.85;;;1.00;99.90;;;;;;5054583;28;20213;-85
2023/02/08 02:56:57;;;;;;;19.70;11.13;;;0.80;99.90;;;;;;5053839;28;20167;-84
2023/02/08 02:59:24;;;;;;;20.80;12.70;;;0.90;99.90;;;;;;5054895;28;20171;-81
2023/02/08 03:01:54;;;;;;;21.45;12.35;;;0.80;99.90;;;;;;5054657;28;20586;-85
2023/02/08 03:04:32;;;;;;;19.58;12.10;;;0.80;99.90;;;;;;5054631;28;20163;-83
2023/02/08 03:07:13;;;;;;;20.30;11.85;;;0.70;99.90;;;;;;5054301;28;20166;-83
2023/02/08 03:10:07;;;;;;;15.02;10.90;;;0.80;99.90;;;;;;5054438;28;20170;-85
2023/02/08 03:12:51;;;;;;;17.27;11.32;;;0.90;99.90;;;;;;5052915;28;20203;-83
2023/02/08 03:15:23;;;;;;;17.13;11.05;;;1.00;99.90;;;;;;5054082;28;20294;-83
2023/02/08 03:17:48;;;;;;;19.40;12.20;;;1.00;99.90;;;;;;5054286;28;20167;-80
2023/02/08 03:20:20;;;;;;;19.27;11.57;;;1.10;99.90;;;;;;5053226;28;20175;-83
2023/02/08 03:23:14;;;;;;;18.10;11.73;;;1.00;99.90;;;;;;5052831;28;20680;-81
2023/02/08 03:25:45;;;;;;;25.33;12.43;;;1.00;99.90;;;;;;5053652;28;20182;-82
2023/02/08 03:28:44;;;;;;;19.95;12.02;;;0.90;99.90;;;;;;5052236;28;20297;-82
2023/02/08 03:31:29;;;;;;;20.58;10.38;;;0.90;99.90;;;;;;5052525;28;20566;-80
2023/02/08 03:34:16;;;;;;;23.25;12.77;;;0.90;99.90;;;;;;5053661;28;20207;-84
2023/02/08 03:36:59;;;;;;;17.33;10.55;;;0.90;99.90;;;;;;5052903;28;20167;-83
2023/02/08 03:39:28;;;;;;;22.05;12.23;;;1.20;99.90;;;;;;5053363;28;20195;-82
2023/02/08 03:41:58;;;;;;;19.77;12.10;;;1.20;99.90;;;;;;5053470;28;20186;-81
2023/02/08 03:44:34;;;;;;;23.27;13.30;;;1.30;99.90;;;;;;5051858;28;20181;-81
2023/02/08 03:47:24;;;;;;;22.42;11.68;;;1.30;99.90;;;;;;5053509;28;20169;-82
2023/02/08 03:49:52;;;;;;;21.15;13.32;;;1.20;99.90;;;;;;5053570;28;20175;-84
2023/02/08 03:52:18;;;;;;;21.35;12.70;;;1.20;99.90;;;;;;5051954;28;20172;-84
2023/02/08 03:54:55;;;;;;;21.45;12.85;;;1.00;99.90;;;;;;5053092;28;20550;-80
2023/02/08 03:57:29;;;;;;;25.15;12.75;;;0.90;99.90;;;;;;5052952;28;20535;-83
2023/02/08 04:00:11;;;;;;;22.02;11.55;;;0.90;99.90;;;;;;5051512;28;20694;-82
2023/02/08 04:02:41;;;;;;;19.45;12.65;;;1.00;99.90;;;;;;5052215;28;20198;-83
2023/02/08 04:05:07;;;;;;;20.83;11.90;;;1.00;99.90;;;;;;5051391;28;20706;-81
2023/02/08 04:07:33;;;;;;;19.65;12.73;;;1.00;99.90;;;;;;5052637;28;20163;-82
2023/02/08 04:09:58;;;;;;;20.02;12.57;;;1.20;99.90;;;;;;5052713;28;20181;-81
2023/02/08 04:12:24;;;;;;;23.70;13.45;;;1.20;99.90;;;;;;5051438;28;20241;-82
2023/02/08 04:14:50;;;;;;;25.48;13.38;;;1.10;99.90;;;;;;5052864;28;20198;-81
2023/02/08 04:17:16;;;;;;;21.17;12.77;;;1.10;99.90;;;;;;5052694;28;20174;-81
2023/02/08 04:19:41;;;;;;;24.42;13.55;;;1.00;99.90;;;;;;5052609;28;20253;-81
2023/02/08 04:22:07;;;;;;;18.92;12.90;;;1.20;99.90;;;;;;5051323;28;20182;-81
2023/02/08 04:24:33;;;;;;;18.42;12.50;;;1.10;99.90;;;;;;5052717;28;20204;-82
2023/02/08 04:26:58;;;;;;;26.38;13.80;;;1.00;99.90;;;;;;5052567;28;20189;-82
2023/02/08 04:29:24;;;;;;;20.42;12.55;;;0.90;99.90;;;;;;5052373;28;20167;-84
2023/02/08 04:31:49;;;;;;;28.50;13.68;;;1.10;99.90;;;;;;5052427;28;20651;-82
2023/02/08 04:34:15;;;;;;;19.95;12.93;;;1.10;99.90;;;;;;5052494;28;20256;-81
2023/02/08 04:36:41;;;;;;;22.33;13.32;;;1.20;99.90;;;;;;5052186;28;20171;-83
2023/02/08 04:39:06;;;;;;;22.80;13.52;;;1.30;99.90;;;;;;5052393;28;20167;-81
2023/02/08 04:41:32;;;;;;;20.90;13.35;;;1.20;99.90;;;;;;5052371;28;20190;-82
2023/02/08 04:43:57;;;;;;;25.92;12.88;;;1.10;99.90;;;;;;5053012;28;20613;-85
2023/02/08 04:46:23;;;;;;;22.85;14.13;;;1.10;99.90;;;;;;5054058;28;20250;-83
2023/02/08 04:48:49;;;;;;;26.15;13.98;;;1.20;99.90;;;;;;5056887;28;20631;-84
2023/02/08 04:51:14;;;;;;;21.27;12.88;;;1.30;99.90;;;;;;5056601;28;21233;-84
2023/02/08 04:53:40;;;;;;;18.65;13.05;;;1.30;99.90;;;;;;5055282;28;20199;-84
2023/02/08 04:56:06;;;;;;;25.27;13.15;;;1.00;99.90;;;;;;5056501;28;20171;-81
2023/02/08 04:58:31;;;;;;;20.73;13.18;;;0.90;99.90;;;;;;5056619;28;20242;-82
2023/02/08 05:00:57;;;;;;;24.52;13.57;;;1.10;99.90;;;;;;5055911;28;20219;-81
2023/02/08 05:03:23;;;;;;;22.98;13.80;;;1.10;99.90;;;;;;5056415;28;20294;-82
2023/02/08 05:05:59;;;;;;;23.63;14.15;;;0.80;99.90;;;;;;5056144;28;20250;-81
2023/02/08 05:08:25;;;;;;;22.35;13.30;;;0.60;99.90;;;;;;5056418;28;20206;-80
2023/02/08 05:10:50;;;;;;;23.98;14.00;;;0.70;99.90;;;;;;5056231;28;20270;-83
2023/02/08 05:13:16;;;;;;;23.27;14.57;;;0.70;99.90;;;;;;5054749;28;20274;-84
2023/02/08 05:15:42;;;;;;;21.38;13.50;;;0.70;99.90;;;;;;5056444;28;20172;-83
2023/02/08 05:18:07;;;;;;;21.85;13.32;;;0.90;99.90;;;;;;5056222;28;20174;-83
2023/02/08 05:20:33;;;;;;;23.45;13.52;;;1.20;99.90;;;;;;5056470;28;20616;-80
2023/02/08 05:22:59;;;;;;;27.10;14.63;;;1.30;99.90;;;;;;5056024;28;20167;-81
2023/02/08 05:25:24;;;;;;;18.52;12.32;;;1.40;99.90;;;;;;5055819;28;20199;-81
2023/02/08 05:27:50;;;;;;;28.75;13.55;;;1.50;99.90;;;;;;5056388;28;20620;-85
2023/02/08 05:30:16;;;;;;;22.77;14.00;;;1.40;99.90;;;;;;5056180;28;20167;-83
2023/02/08 05:32:42;;;;;;;26.33;13.38;;;1.30;99.90;;;;;;5056166;28;20768;-84
2023/02/08 05:35:07;;;;;;;26.58;13.82;;;1.10;99.90;;;;;;5054474;28;20210;-84
2023/02/08 05:37:33;;;;;;;31.40;14.63;;;1.00;99.90;;;;;;5054417;28;20163;-84
2023/02/08 05:39:59;;;;;;;27.45;14.23;;;1.00;99.90;;;;;;5055489;28;20673;-82
2023/02/08 05:42:24;;;;;;;19.33;13.43;;;1.10;99.90;;;;;;5054475;28;20219;-83
2023/02/08 05:44:51;;;;;;;25.20;14.60;;;1.30;99.90;;;;;;5055822;28;20178;-83
2023/02/08 05:47:17;;;;;;;27.00;14.00;;;1.30;99.90;;;;;;5055815;28;20241;-81
2023/02/08 05:49:42;;;;;;;27.90;14.48;;;1.20;99.90;;;;;;5055377;28;20201;-82
2023/02/08 05:52:08;;;;;;;22.15;14.32;;;1.30;99.90;;;;;;5055384;28;20191;-83
2023/02/08 05:54:33;;;;;;;23.52;14.48;;;1.30;99.90;;;;;;5055552;28;20209;-83
2023/02/08 05:56:59;;;;;;;23.08;13.35;;;1.20;99.90;;;;;;5055324;28;20168;-81
2023/02/08 05:59:25;;;;;;;20.40;13.15;;;1.20;99.90;;;;;;5054689;28;20179;-82
2023/02/08 06:01:50;;;;;;;21.45;14.05;;;1.20;99.90;;;;;;5056170;28;20191;-80
2023/02/08 06:04:16;;;;;;;23.40;13.38;;;1.20;99.90;;;;;;5055289;28;20227;-81
2023/02/08 06:06:41;;;;;;;25.70;14.30;;;1.20;99.90;;;;;;5055229;28;20175;-82
2023/02/08 06:09:07;;;;;;;21.40;13.57;;;1.30;99.90;;;;;;5055234;28;20155;-81
2023/02/08 06:11:34;;;;;;;27.75;15.18;;;1.30;99.90;;;;;;5055248;28;20183;-83
2023/02/08 06:14:00;;;;;;;20.60;13.65;;;1.40;99.90;;;;;;5053889;28;20705;-83
2023/02/08 06:16:26;;;;;;;41.85;15.00;;;1.30;99.90;;;;;;5055247;28;20246;-85
2023/02/08 06:18:52;;;;;;;19.88;13.70;;;1.30;99.90;;;;;;5054341;28;20209;-83
2023/02/08 06:21:17;;;;;;;30.83;14.32;;;1.30;99.90;;;;;;5055374;28;20262;-83
2023/02/08 06:23:43;;;;;;;23.27;13.00;;;1.30;99.90;;;;;;5054064;28;20171;-83
2023/02/08 06:26:09;;;;;;;25.65;13.30;;;1.20;99.90;;;;;;5055379;28;20176;-83
2023/02/08 06:28:34;;;;;;;31.45;15.38;;;1.20;99.90;;;;;;5056886;28;20159;-83
2023/02/08 06:31:00;;;;;;;23.35;14.82;;;1.20;99.90;;;;;;5054948;28;20253;-82
2023/02/08 06:33:25;;;;;;;21.30;14.30;;;1.30;99.90;;;;;;5069471;28;20147;-82
2023/02/08 06:35:52;;;;;;;20.00;14.15;;;1.40;99.90;;;;;;5074145;28;20159;-80
2023/02/08 06:38:18;;;;;;;25.45;14.63;;;1.60;99.90;;;;;;5067393;28;20159;-81
2023/02/08 06:40:46;;;;;;;23.80;14.23;;;1.60;99.90;;;;;;5054981;28;20174;-83
2023/02/08 06:43:12;;;;;;;21.77;13.35;;;1.40;99.90;;;;;;5055077;28;20267;-83
2023/02/08 06:45:38;;;;;;;24.02;13.23;;;1.50;99.90;;;;;;5054835;28;20657;-81
2023/02/08 06:48:04;;;;;;;34.40;15.95;;;1.40;99.90;;;;;;5054410;28;20242;-82
2023/02/08 06:50:30;;;;;;;26.58;15.65;;;1.50;99.90;;;;;;5054529;28;20167;-82
2023/02/08 06:52:55;;;;;;;31.00;15.45;;;1.60;99.90;;;;;;5054101;28;20211;-81
2023/02/08 06:55:21;;;;;;;30.35;15.30;;;1.50;99.90;;;;;;5052615;28;20339;-81
2023/02/08 06:57:46;;;;;;;26.15;14.85;;;1.60;99.90;;;;;;5053171;28;20179;-83
2023/02/08 07:00:13;;;;;;;21.40;15.05;;;1.60;99.90;;;;;;5053163;28;20175;-81
2023/02/08 07:02:38;;;;;;;26.83;15.23;;;1.50;99.90;;;;;;5054154;28;20171;-83
2023/02/08 07:05:04;;;;;;;32.80;14.70;;;1.40;99.90;;;;;;5052882;28;20170;-84
2023/02/08 07:07:30;;;;;;;29.88;14.88;;;1.30;99.90;;;;;;5053689;28;20189;-84
2023/02/08 07:09:55;;;;;;;23.42;14.25;;;1.20;99.90;;;;;;5052078;28;20175;-83
2023/02/08 07:12:21;;;;;;;21.77;13.57;;;1.40;99.90;;;;;;5053650;28;20686;-83
2023/02/08 07:14:46;;;;;;;28.20;14.73;;;1.40;99.90;;;;;;5053943;28;20280;-84
2023/02/08 07:17:12;;;;;;;27.08;15.35;;;1.50;99.90;;;;;;5053543;28;20163;-81
2023/02/08 07:19:39;;;;;;;33.53;14.68;;;1.60;99.90;;;;;;5053907;28;20182;-81
2023/02/08 07:22:07;;;;;;;25.10;15.52;;;1.70;99.90;;;;;;5053761;28;20187;-81
2023/02/08 07:24:37;;;;;;;27.20;15.80;;;1.60;99.90;;;;;;5052939;28;20632;-82
2023/02/08 07:27:03;;;;;;;25.05;14.20;;;1.60;99.90;;;;;;5053574;28;20171;-83
2023/02/08 07:29:30;;;;;;;33.05;14.00;;;1.60;99.90;;;;;;5052027;28;20170;-83
2023/02/08 07:31:57;;;;;;;26.58;14.82;;;1.70;99.90;;;;;;5053641;28;21236;-81
2023/02/08 07:34:22;;;;;;;22.77;13.27;;;1.80;99.90;;;;;;5053768;28;20743;-82
2023/02/08 07:36:48;;;;;;;31.55;14.90;;;2.00;99.90;;;;;;5051842;28;20160;-84
2023/02/08 07:39:14;;;;;;;36.30;15.18;;;1.90;99.90;;;;;;5053290;28;20258;-83
2023/02/08 07:41:40;;;;;;;32.30;15.23;;;2.00;99.90;;;;;;5053367;28;20214;-83
2023/02/08 07:44:06;;;;;;;22.60;13.52;;;2.00;99.90;;;;;;5053231;28;20171;-82
2023/02/08 07:46:31;;;;;;;30.77;14.75;;;1.90;99.90;;;;;;5052788;28;20177;-81
2023/02/08 07:48:57;;;;;;;29.55;13.90;;;2.00;99.90;;;;;;5053304;28;20261;-81
2023/02/08 07:51:23;;;;;;;39.10;14.68;;;1.90;99.90;;;;;;5052905;28;20191;-81
2023/02/08 07:53:49;;;;;;;37.90;15.15;;;1.80;99.90;;;;;;5053014;28;20207;-82
2023/02/08 07:56:14;;;;;;;50.08;15.13;;;1.90;99.90;;;;;;5052595;28;20193;-83
2023/02/08 07:58:40;;;;;;;25.73;13.57;;;2.10;99.90;;;;;;5053028;28;20203;-82
2023/02/08 08:01:06;;;;;;;32.97;14.98;;;2.30;99.90;;;;;;5051814;28;20187;-80
2023/02/08 08:03:31;;;;;;;30.90;14.75;;;2.30;99.90;;;;;;5053241;28;20171;-81
2023/02/08 08:05:57;;;;;;;31.60;14.80;;;2.40;99.90;;;;;;5051036;28;20167;-81
2023/02/08 08:08:23;;;;;;;28.23;15.57;;;2.30;99.90;;;;;;5051157;28;20167;-82
2023/02/08 08:10:49;;;;;;;25.15;13.60;;;2.30;99.90;;;;;;5052628;28;20191;-82
2023/02/08 08:13:15;;;;;;;40.22;15.55;;;2.50;99.90;;;;;;5051142;28;20172;-81
2023/02/08 08:15:40;;;;;;;35.15;13.50;;;2.70;99.90;;;;;;5052703;28;20221;-79
2023/02/08 08:18:06;;;;;;;39.08;14.75;;;2.80;99.90;;;;;;5052454;28;20173;-82
2023/02/08 08:20:32;;;;;;;22.15;13.35;;;2.90;99.90;;;;;;5050827;28;20584;-81
2023/02/08 08:22:59;;;;;;;21.90;12.88;;;2.90;99.90;;;;;;5052473;28;20170;-83
2023/02/08 08:25:25;;;;;;;27.52;14.45;;;2.90;99.90;;;;;;5052811;28;20171;-82
2023/02/08 08:27:51;;;;;;;27.23;13.75;;;3.00;99.90;;;;;;5053035;28;20170;-85
2023/02/08 08:30:17;;;;;;;34.38;14.10;;;3.00;99.90;;;;;;5052032;28;20175;-84
2023/02/08 08:32:43;;;;;;;32.00;13.40;;;3.10;99.90;;;;;;5050958;28;20191;-78
2023/02/08 08:35:09;;;;;;;20.75;13.00;;;3.20;99.90;;;;;;5052118;28;20702;-79
2023/02/08 08:37:35;;;;;;;23.27;11.80;;;3.30;99.90;;;;;;5051985;28;20171;-79
2023/02/08 08:40:01;;;;;;;17.77;12.10;;;3.40;99.90;;;;;;5052474;28;20583;-83
2023/02/08 08:42:27;;;;;;;23.50;13.13;;;3.40;99.90;;;;;;5050875;28;20199;-83
2023/02/08 08:44:53;;;;;;;24.42;12.90;;;3.50;99.90;;;;;;5051573;28;20655;-84
2023/02/08 08:47:19;;;;;;;23.15;13.15;;;3.60;99.90;;;;;;5051820;28;20207;-84
2023/02/08 08:49:44;;;;;;;22.42;11.32;;;3.60;99.90;;;;;;5052181;28;20171;-84
2023/02/08 08:52:11;;;;;;;19.50;12.00;;;3.80;99.90;;;;;;5052660;28;20198;-81
2023/02/08 08:54:37;;;;;;;37.53;11.57;;;3.80;99.90;;;;;;5052905;28;20213;-83
2023/02/08 08:57:04;;;;;;;27.55;11.90;;;3.90;99.90;;;;;;5052293;28;20238;-87
2023/02/08 08:59:29;;;;;;;37.88;11.15;;;4.00;99.90;;;;;;5052676;28;20183;-81
2023/02/08 09:01:55;;;;;;;25.48;10.40;;;4.10;99.90;;;;;;5051383;28;20193;-83
2023/02/08 09:04:23;;;;;;;18.02;11.10;;;4.10;99.90;;;;;;5051941;28;20210;-79
2023/02/08 09:06:49;;;;;;;28.50;10.98;;;4.20;99.90;;;;;;5052144;28;20163;-79
2023/02/08 09:09:15;;;;;;;14.88;9.27;;;4.30;99.90;;;;;;5052420;28;20278;-81
2023/02/08 09:11:41;;;;;;;19.63;9.93;;;4.40;99.90;;;;;;5052731;28;20230;-83
2023/02/08 09:14:07;;;;;;;17.70;8.98;;;4.50;99.90;;;;;;5052472;28;20195;-88
2023/02/08 09:16:33;;;;;;;23.08;8.02;;;4.60;99.90;;;;;;5051959;28;20175;-81
2023/02/08 09:19:03;;;;;;;15.73;8.68;;;4.60;99.90;;;;;;5052482;28;20495;-86
2023/02/08 09:21:29;;;;;;;12.32;8.75;;;4.80;99.90;;;;;;5052528;28;20222;-84
2023/02/08 09:23:55;;;;;;;12.25;7.95;;;4.80;99.90;;;;;;5048764;28;20217;-82
2023/02/08 09:26:24;;;;;;;17.20;8.68;;;4.80;99.90;;;;;;5050155;28;20190;-80
2023/02/08 09:28:50;;;;;;;25.98;8.50;;;4.60;99.90;;;;;;5052155;28;20164;-80
2023/02/08 09:31:20;;;;;;;22.58;7.95;;;4.70;99.90;;;;;;5052113;28;20194;-86
2023/02/08 09:33:46;;;;;;;19.75;7.20;;;4.70;99.90;;;;;;5053283;28;20574;-81
2023/02/08 09:36:13;;;;;;;22.52;8.20;;;4.80;99.90;;;;;;5055655;28;20175;-81
2023/02/08 09:38:39;;;;;;;14.98;6.95;;;4.90;99.90;;;;;;5055942;28;20167;-80
2023/02/08 09:41:26;;;;;;;16.45;7.63;;;4.80;99.90;;;;;;5055755;28;20183;-83
2023/02/08 09:44:13;;;;;;;21.13;6.40;;;4.90;99.90;;;;;;5055327;28;20385;-86
2023/02/08 09:46:44;;;;;;;23.38;6.70;;;4.90;99.90;;;;;;5054197;28;20620;-79
2023/02/08 09:49:20;;;;;;;25.45;8.73;;;5.00;99.90;;;;;;5055570;28;20174;-81
2023/02/08 09:51:57;;;;;;;11.68;6.80;;;5.20;99.90;;;;;;5054953;28;20183;-81
2023/02/08 09:54:36;;;;;;;13.07;6.95;;;5.40;99.90;;;;;;5054753;28;20352;-79
2023/02/08 09:57:08;;;;;;;18.33;6.22;;;5.50;99.90;;;;;;5055069;28;20167;-80
2023/02/08 09:59:35;;;;;;;15.73;7.50;;;5.60;99.90;;;;;;5055352;28;20167;-82
2023/02/08 10:02:26;;;;;;;13.63;6.40;;;5.60;99.90;;;;;;5055407;28;20186;-83
2023/02/08 10:05:02;;;;;;;9.77;5.60;;;5.60;99.90;;;;;;5055601;28;20179;-81
2023/02/08 10:07:29;;;;;;;18.77;6.22;;;5.60;99.90;;;;;;5054991;28;20493;-81
2023/02/08 10:09:58;;;;;;;16.45;6.25;;;5.60;99.90;;;;;;5055574;28;20166;-81
2023/02/08 10:12:47;;;;;;;13.52;4.60;;;5.50;99.90;;;;;;5055170;28;20191;-78
2023/02/08 10:18:10;;;;;;;6.50;5.05;;;5.60;99.90;;;;;;5034565;28;20260;-85
2023/02/08 10:20:51;;;;;;;8.10;4.30;;;5.80;99.90;;;;;;5035983;28;20183;-86
2023/02/08 10:23:37;;;;;;;8.80;4.88;;;5.90;99.90;;;;;;5035570;28;20160;-81
2023/02/08 10:26:12;;;;;;;5.75;4.35;;;5.90;99.90;;;;;;5035866;28;20164;-83
2023/02/08 10:28:41;;;;;;;10.30;5.22;;;6.00;99.90;;;;;;5034407;28;20167;-86
2023/02/08 10:31:12;;;;;;;7.47;4.45;;;6.10;99.90;;;;;;5035231;28;20682;-86
2023/02/08 10:34:00;;;;;;;12.38;4.40;;;6.10;99.90;;;;;;5034544;28;20203;-86
2023/02/08 10:36:32;;;;;;;11.43;5.30;;;6.30;99.90;;;;;;5033931;28;20176;-85
2023/02/08 10:38:59;;;;;;;10.57;4.55;;;6.30;99.90;;;;;;5034161;28;20179;-84
2023/02/08 10:41:33;;;;;;;6.00;4.30;;;6.40;99.90;;;;;;5034296;28;20191;-86
2023/02/08 10:44:11;;;;;;;8.57;4.53;;;6.50;99.90;;;;;;5034797;28;20249;-84
2023/02/08 10:47:13;;;;;;;12.77;3.97;;;6.40;99.90;;;;;;5033983;28;20182;-87
2023/02/08 10:49:49;;;;;;;7.22;4.18;;;6.50;99.90;;;;;;5014438;28;20332;-83
2023/02/08 10:52:14;;;;;;;10.20;4.10;;;6.40;99.90;;;;;;5034698;28;20199;-87
2023/02/08 10:54:40;;;;;;;12.25;3.95;;;6.70;99.90;;;;;;5035000;28;20207;-87
2023/02/08 10:57:23;;;;;;;8.98;3.90;;;6.70;99.90;;;;;;5032532;28;20187;-81
2023/02/08 10:59:53;;;;;;;13.82;4.30;;;6.70;99.90;;;;;;5033041;28;20171;-80
2023/02/08 11:02:24;;;;;;;5.70;3.25;;;6.80;99.20;;;;;;5032664;28;20199;-79
2023/02/08 11:05:02;;;;;;;13.52;4.28;;;6.90;97.00;;;;;;5032776;28;20281;-86
2023/02/08 11:07:29;;;;;;;12.45;3.88;;;6.90;97.10;;;;;;5034616;28;20585;-82
2023/02/08 11:10:15;;;;;;;9.18;3.50;;;7.00;95.40;;;;;;5035447;28;20495;-85
2023/02/08 11:12:42;;;;;;;3.88;2.55;;;7.00;93.90;;;;;;5033600;28;20200;-85
2023/02/08 11:15:28;;;;;;;5.05;3.22;;;6.90;92.30;;;;;;5034659;28;20202;-80
2023/02/08 11:17:58;;;;;;;3.58;2.53;;;6.80;92.50;;;;;;5034119;28;20172;-85
2023/02/08 11:20:35;;;;;;;5.28;2.90;;;6.90;92.70;;;;;;5034055;28;20172;-81
2023/02/08 11:23:03;;;;;;;9.70;3.90;;;6.90;92.10;;;;;;5031889;28;20222;-80
2023/02/08 11:25:32;;;;;;;4.20;3.25;;;6.90;93.50;;;;;;5033364;28;20179;-86
2023/02/08 11:27:59;;;;;;;4.28;3.33;;;7.00;93.20;;;;;;5033099;28;20191;-85
2023/02/08 11:30:24;;;;;;;9.55;3.15;;;7.10;92.10;;;;;;5033624;28;20160;-84
2023/02/08 11:33:13;;;;;;;2.60;2.30;;;7.10;91.70;;;;;;5032679;28;20242;-80
2023/02/08 11:35:40;;;;;;;14.63;3.17;;;7.00;90.80;;;;;;5033644;28;20207;-86
2023/02/08 11:38:14;;;;;;;6.78;3.50;;;7.00;91.10;;;;;;5032889;28;20204;-85
2023/02/08 11:40:43;;;;;;;2.63;2.17;;;7.00;91.60;;;;;;5033287;28;20216;-82
2023/02/08 11:43:21;;;;;;;4.90;3.13;;;7.20;89.30;;;;;;5032410;28;20164;-82
2023/02/08 11:45:47;;;;;;;3.55;2.30;;;7.20;87.90;;;;;;5033395;28;20168;-85
2023/02/08 11:48:22;;;;;;;6.20;2.53;;;7.20;86.20;;;;;;5033726;28;20230;-85
2023/02/08 11:50:59;;;;;;;13.45;3.10;;;7.30;87.00;;;;;;5033972;28;20246;-85
2023/02/08 11:53:38;;;;;;;7.50;3.45;;;7.30;90.30;;;;;;5032388;28;20388;-84
2023/02/08 11:56:24;;;;;;;5.75;3.15;;;7.50;91.20;;;;;;5032105;28;20317;-85
2023/02/08 11:58:57;;;;;;;7.10;3.15;;;7.70;89.70;;;;;;5032118;28;20160;-85
2023/02/08 12:01:28;;;;;;;7.28;3.42;;;7.60;90.20;;;;;;5032152;28;20281;-85
2023/02/08 12:03:55;;;;;;;2.60;2.20;;;7.70;88.00;;;;;;5031696;28;20178;-80
2023/02/08 12:06:42;;;;;;;7.57;3.42;;;7.70;87.10;;;;;;5032175;28;20660;-87
2023/02/08 12:09:37;;;;;;;8.77;3.38;;;7.50;91.60;;;;;;5033818;28;20168;-87
2023/02/08 12:12:41;;;;;;;8.18;3.50;;;7.50;91.70;;;;;;5029730;28;20260;-86
2023/02/08 12:15:45;;;;;;;8.25;3.30;;;7.60;90.70;;;;;;5024375;28;20219;-87
2023/02/08 12:18:17;;;;;;;3.35;2.58;;;7.30;92.40;;;;;;5011539;28;20259;-86
2023/02/08 12:20:46;;;;;;;4.03;3.35;;;7.40;92.10;;;;;;4994843;28;20175;-85
2023/02/08 12:23:27;;;;;;;4.03;2.70;;;7.30;92.60;;;;;;5023262;28;20648;-87
2023/02/08 12:26:07;;;;;;;3.78;2.88;;;7.40;91.70;;;;;;5032210;28;20176;-79
2023/02/08 12:28:41;;;;;;;5.55;3.85;;;7.60;90.80;;;;;;5033050;28;20176;-82
2023/02/08 12:31:25;;;;;;;9.20;2.80;;;7.80;91.40;;;;;;5031654;28;20198;-86
2023/02/08 12:34:16;;;;;;;4.70;2.75;;;7.70;90.40;;;;;;5033179;28;20300;-83
2023/02/08 12:40:48;;;;;;;9.15;2.88;;;7.70;89.90;;;;;;5026823;28;20183;-86
2023/02/08 12:43:13;;;;;;;2.75;2.20;;;7.80;90.00;;;;;;5032724;28;20559;-85
2023/02/08 12:45:54;;;;;;;3.95;2.67;;;7.70;89.10;;;;;;5031699;28;20171;-83
2023/02/08 12:48:38;;;;;;;5.43;2.47;;;7.80;89.80;;;;;;5032629;28;20164;-83
2023/02/08 12:51:07;;;;;;;4.57;2.53;;;7.70;90.40;;;;;;5032619;28;20290;-85
2023/02/08 12:53:40;;;;;;;4.25;2.42;;;7.70;90.10;;;;;;5031577;28;20618;-85
2023/02/08 12:56:15;;;;;;;3.88;2.30;;;7.80;90.40;;;;;;5031693;28;20212;-87
2023/02/08 12:58:48;;;;;;;3.50;2.38;;;8.00;90.40;;;;;;5032746;28;20171;-80
2023/02/08 13:01:25;;;;;;;3.53;2.30;;;7.80;90.00;;;;;;5032754;28;20231;-84
2023/02/08 13:04:15;;;;;;;4.70;2.60;;;7.80;90.30;;;;;;5032539;28;20168;-87
2023/02/08 13:06:43;;;;;;;8.55;2.38;;;7.90;90.30;;;;;;5032558;28;20527;-85
2023/02/08 13:09:32;;;;;;;4.05;2.80;;;8.00;89.30;;;;;;5034488;28;20175;-86